sensor_id;sensor_type;location;lat;lon;timestamp;temperature;humidity
12025;DHT22;6073;53.230;10.444;2023-04-12T00:01:08;2.90;99.90
12025;DHT22;6073;53.230;10.444;2023-04-12T00:03:33;2.80;99.90
12025;DHT22;6073;53.230;10.444;2023-04-12T00:05:59;2.90;99.90
12025;DHT22;6073;53.230;10.444;2023-04-12T00:08:28;2.90;99.90
12025;DHT22;6073;53.230;10.444;2023-04-12T00:10:58;2.90;99.90
12025;DHT22;6073;53.230;10.444;2023-04-12T00:13:23;2.70;99.90
12025;DHT22;6073;53.230;10.444;2023-04-12T00:15:49;2.70;99.90
12025;DHT22;6073;53.230;10.444;2023-04-12T00:18:15;2.70;99.90
12025;DHT22;6073;53.230;10.444;2023-04-12T00:20:42;2.70;99.90
12025;DHT22;6073;53.230;10.444;2023-04-12T00:23:08;2.70;99.90
12025;DHT22;6073;53.230;10.444;2023-04-12T00:25:37;2.80;99.90
12025;DHT22;6073;53.230;10.444;2023-04-12T00:28:04;2.80;99.90
12025;DHT22;6073;53.230;10.444;2023-04-12T00:30:30;2.80;99.90
12025;DHT22;6073;53.230;10.444;2023-04-12T00:32:56;2.80;99.90
12025;DHT22;6073;53.230;10.444;2023-04-12T00:35:21;2.70;99.90
12025;DHT22;6073;53.230;10.444;2023-04-12T00:37:47;2.70;99.90
12025;DHT22;6073;53.230;10.444;2023-04-12T00:40:12;2.70;99.90
12025;DHT22;6073;53.230;10.444;2023-04-12T00:42:38;2.70;99.90
12025;DHT22;6073;53.230;10.444;2023-04-12T00:45:04;2.70;99.90
12025;DHT22;6073;53.230;10.444;2023-04-12T00:47:33;2.70;99.90
12025;DHT22;6073;53.230;10.444;2023-04-12T00:50:00;2.70;99.90
12025;DHT22;6073;53.230;10.444;2023-04-12T00:52:26;2.80;99.90
12025;DHT22;6073;53.230;10.444;2023-04-12T00:55:00;2.70;99.90
12025;DHT22;6073;53.230;10.444;2023-04-12T00:57:26;2.70;99.90
12025;DHT22;6073;53.230;10.444;2023-04-12T00:59:52;2.70;99.90
12025;DHT22;6073;53.230;10.444;2023-04-12T01:02:18;2.70;99.90
12025;DHT22;6073;53.230;10.444;2023-04-12T01:04:44;2.70;99.90
12025;DHT22;6073;53.230;10.444;2023-04-12T01:08:14;2.70;99.90
12025;DHT22;6073;53.230;10.444;2023-04-12T01:14:00;2.80;99.90
12025;DHT22;6073;53.230;10.444;2023-04-12T01:16:11;2.70;99.90
12025;DHT22;6073;53.230;10.444;2023-04-12T01:18:40;2.80;99.90
12025;DHT22;6073;53.230;10.444;2023-04-12T01:21:15;2.70;99.90
12025;DHT22;6073;53.230;10.444;2023-04-12T01:26:44;2.80;99.90
12025;DHT22;6073;53.230;10.444;2023-04-12T01:29:15;2.80;99.90
12025;DHT22;6073;53.230;10.444;2023-04-12T01:31:53;2.80;99.90
12025;DHT22;6073;53.230;10.444;2023-04-12T01:34:21;2.80;99.90
12025;DHT22;6073;53.230;10.444;2023-04-12T01:36:47;2.90;99.90
12025;DHT22;6073;53.230;10.444;2023-04-12T01:39:15;2.90;99.90
12025;DHT22;6073;53.230;10.444;2023-04-12T01:41:40;2.90;99.90
12025;DHT22;6073;53.230;10.444;2023-04-12T01:44:12;2.90;99.90
12025;DHT22;6073;53.230;10.444;2023-04-12T01:46:38;2.80;99.90
12025;DHT22;6073;53.230;10.444;2023-04-12T01:49:04;2.70;99.90
12025;DHT22;6073;53.230;10.444;2023-04-12T01:52:02;2.70;99.90
12025;DHT22;6073;53.230;10.444;2023-04-12T01:54:37;2.60;99.90
12025;DHT22;6073;53.230;10.444;2023-04-12T01:57:03;2.70;99.90
12025;DHT22;6073;53.230;10.444;2023-04-12T01:59:49;2.70;99.90
12025;DHT22;6073;53.230;10.444;2023-04-12T02:02:16;2.70;99.90
12025;DHT22;6073;53.230;10.444;2023-04-12T02:04:42;2.70;99.90
12025;DHT22;6073;53.230;10.444;2023-04-12T02:07:07;2.70;99.90
12025;DHT22;6073;53.230;10.444;2023-04-12T02:09:37;2.80;99.90
12025;DHT22;6073;53.230;10.444;2023-04-12T02:12:03;2.90;99.90
12025;DHT22;6073;53.230;10.444;2023-04-12T02:14:29;3.00;99.90
12025;DHT22;6073;53.230;10.444;2023-04-12T02:16:56;3.00;99.90
12025;DHT22;6073;53.230;10.444;2023-04-12T02:19:22;3.10;99.90
12025;DHT22;6073;53.230;10.444;2023-04-12T02:21:49;3.10;99.90
12025;DHT22;6073;53.230;10.444;2023-04-12T02:24:15;3.10;99.90
12025;DHT22;6073;53.230;10.444;2023-04-12T02:26:40;3.10;99.90
12025;DHT22;6073;53.230;10.444;2023-04-12T02:29:07;3.10;99.90
12025;DHT22;6073;53.230;10.444;2023-04-12T02:31:34;3.20;99.90
12025;DHT22;6073;53.230;10.444;2023-04-12T02:34:01;3.20;99.90
12025;DHT22;6073;53.230;10.444;2023-04-12T02:36:27;3.10;99.90
12025;DHT22;6073;53.230;10.444;2023-04-12T02:38:52;3.20;99.90
12025;DHT22;6073;53.230;10.444;2023-04-12T02:41:19;3.20;99.90
12025;DHT22;6073;53.230;10.444;2023-04-12T02:43:45;3.20;99.90
12025;DHT22;6073;53.230;10.444;2023-04-12T02:46:18;3.20;99.90
12025;DHT22;6073;53.230;10.444;2023-04-12T02:48:47;3.20;99.90
12025;DHT22;6073;53.230;10.444;2023-04-12T02:51:13;3.20;99.90
12025;DHT22;6073;53.230;10.444;2023-04-12T02:53:39;3.20;99.90
12025;DHT22;6073;53.230;10.444;2023-04-12T02:56:05;3.20;99.90
12025;DHT22;6073;53.230;10.444;2023-04-12T02:58:32;3.30;99.90
12025;DHT22;6073;53.230;10.444;2023-04-12T03:00:59;3.20;99.90
12025;DHT22;6073;53.230;10.444;2023-04-12T03:03:25;3.20;99.90
12025;DHT22;6073;53.230;10.444;2023-04-12T03:05:53;3.20;99.90
12025;DHT22;6073;53.230;10.444;2023-04-12T03:08:19;3.40;99.90
12025;DHT22;6073;53.230;10.444;2023-04-12T03:10:44;3.50;99.90
12025;DHT22;6073;53.230;10.444;2023-04-12T03:13:10;3.60;99.90
12025;DHT22;6073;53.230;10.444;2023-04-12T03:15:36;3.70;99.90
12025;DHT22;6073;53.230;10.444;2023-04-12T03:18:01;3.80;99.90
12025;DHT22;6073;53.230;10.444;2023-04-12T03:20:27;3.80;99.90
12025;DHT22;6073;53.230;10.444;2023-04-12T03:22:53;3.70;99.90
12025;DHT22;6073;53.230;10.444;2023-04-12T03:25:18;3.70;99.90
12025;DHT22;6073;53.230;10.444;2023-04-12T03:27:44;3.70;99.90
12025;DHT22;6073;53.230;10.444;2023-04-12T03:30:10;3.70;99.90
12025;DHT22;6073;53.230;10.444;2023-04-12T03:32:37;3.70;99.90
12025;DHT22;6073;53.230;10.444;2023-04-12T03:35:03;3.80;99.90
12025;DHT22;6073;53.230;10.444;2023-04-12T03:37:29;3.80;99.90
12025;DHT22;6073;53.230;10.444;2023-04-12T03:39:55;3.80;99.90
12025;DHT22;6073;53.230;10.444;2023-04-12T03:42:20;3.80;99.90
12025;DHT22;6073;53.230;10.444;2023-04-12T03:44:46;3.70;99.90
12025;DHT22;6073;53.230;10.444;2023-04-12T03:47:13;3.70;99.90
12025;DHT22;6073;53.230;10.444;2023-04-12T03:49:38;3.70;99.90
12025;DHT22;6073;53.230;10.444;2023-04-12T03:52:05;3.70;99.90
12025;DHT22;6073;53.230;10.444;2023-04-12T03:54:31;3.80;99.90
12025;DHT22;6073;53.230;10.444;2023-04-12T03:56:57;3.70;99.90
12025;DHT22;6073;53.230;10.444;2023-04-12T03:59:23;3.80;99.90
12025;DHT22;6073;53.230;10.444;2023-04-12T04:01:48;3.90;99.90
12025;DHT22;6073;53.230;10.444;2023-04-12T04:04:14;3.90;99.90
12025;DHT22;6073;53.230;10.444;2023-04-12T04:06:39;3.90;99.90
12025;DHT22;6073;53.230;10.444;2023-04-12T04:09:05;3.80;99.90
12025;DHT22;6073;53.230;10.444;2023-04-12T04:11:31;3.90;99.90
12025;DHT22;6073;53.230;10.444;2023-04-12T04:13:57;3.80;99.90
12025;DHT22;6073;53.230;10.444;2023-04-12T04:16:22;3.80;99.90
12025;DHT22;6073;53.230;10.444;2023-04-12T04:18:48;3.90;99.90
12025;DHT22;6073;53.230;10.444;2023-04-12T04:21:14;3.90;99.90
12025;DHT22;6073;53.230;10.444;2023-04-12T04:23:39;4.10;99.90
12025;DHT22;6073;53.230;10.444;2023-04-12T04:26:10;4.20;99.90
12025;DHT22;6073;53.230;10.444;2023-04-12T04:28:37;4.30;99.90
12025;DHT22;6073;53.230;10.444;2023-04-12T04:31:04;4.30;99.90
12025;DHT22;6073;53.230;10.444;2023-04-12T04:33:31;4.40;99.90
12025;DHT22;6073;53.230;10.444;2023-04-12T04:35:57;4.40;99.90
12025;DHT22;6073;53.230;10.444;2023-04-12T04:38:23;4.50;99.90
12025;DHT22;6073;53.230;10.444;2023-04-12T04:40:50;4.50;99.90
12025;DHT22;6073;53.230;10.444;2023-04-12T04:43:20;4.60;99.90
12025;DHT22;6073;53.230;10.444;2023-04-12T04:45:46;4.60;99.90
12025;DHT22;6073;53.230;10.444;2023-04-12T04:48:15;4.60;99.90
12025;DHT22;6073;53.230;10.444;2023-04-12T04:50:41;4.70;99.90
12025;DHT22;6073;53.230;10.444;2023-04-12T04:53:06;4.70;99.90
12025;DHT22;6073;53.230;10.444;2023-04-12T04:55:32;4.70;99.90
12025;DHT22;6073;53.230;10.444;2023-04-12T04:57:57;4.70;99.90
12025;DHT22;6073;53.230;10.444;2023-04-12T05:00:23;4.70;99.90
12025;DHT22;6073;53.230;10.444;2023-04-12T05:02:50;4.70;99.90
12025;DHT22;6073;53.230;10.444;2023-04-12T05:05:16;4.70;99.90
12025;DHT22;6073;53.230;10.444;2023-04-12T05:07:42;4.70;99.90
12025;DHT22;6073;53.230;10.444;2023-04-12T05:10:08;4.70;99.90
12025;DHT22;6073;53.230;10.444;2023-04-12T05:12:34;4.70;99.90
12025;DHT22;6073;53.230;10.444;2023-04-12T05:15:00;4.70;99.90
12025;DHT22;6073;53.230;10.444;2023-04-12T05:17:26;4.80;99.90
12025;DHT22;6073;53.230;10.444;2023-04-12T05:19:52;4.80;99.90
12025;DHT22;6073;53.230;10.444;2023-04-12T05:22:17;4.80;99.90
12025;DHT22;6073;53.230;10.444;2023-04-12T05:24:46;4.80;99.90
12025;DHT22;6073;53.230;10.444;2023-04-12T05:27:12;4.90;99.90
12025;DHT22;6073;53.230;10.444;2023-04-12T05:29:38;5.00;99.90
12025;DHT22;6073;53.230;10.444;2023-04-12T05:32:04;5.00;99.90
12025;DHT22;6073;53.230;10.444;2023-04-12T05:34:29;5.00;99.90
12025;DHT22;6073;53.230;10.444;2023-04-12T05:36:55;5.10;99.90
12025;DHT22;6073;53.230;10.444;2023-04-12T05:39:21;5.30;99.90
12025;DHT22;6073;53.230;10.444;2023-04-12T05:41:46;5.30;99.90
12025;DHT22;6073;53.230;10.444;2023-04-12T05:44:13;5.40;99.90
12025;DHT22;6073;53.230;10.444;2023-04-12T05:46:38;5.50;99.90
12025;DHT22;6073;53.230;10.444;2023-04-12T05:49:04;5.70;99.90
12025;DHT22;6073;53.230;10.444;2023-04-12T05:51:30;5.80;99.90
12025;DHT22;6073;53.230;10.444;2023-04-12T05:53:55;5.90;99.90
12025;DHT22;6073;53.230;10.444;2023-04-12T05:56:21;6.50;99.90
12025;DHT22;6073;53.230;10.444;2023-04-12T05:58:47;7.30;99.90
12025;DHT22;6073;53.230;10.444;2023-04-12T06:01:13;8.20;99.90
12025;DHT22;6073;53.230;10.444;2023-04-12T06:03:41;8.90;99.90
12025;DHT22;6073;53.230;10.444;2023-04-12T06:06:08;9.30;99.90
12025;DHT22;6073;53.230;10.444;2023-04-12T06:08:35;9.60;99.90
12025;DHT22;6073;53.230;10.444;2023-04-12T06:11:00;9.90;99.90
12025;DHT22;6073;53.230;10.444;2023-04-12T06:13:26;10.10;99.90
12025;DHT22;6073;53.230;10.444;2023-04-12T06:15:51;10.40;99.90
12025;DHT22;6073;53.230;10.444;2023-04-12T06:18:17;10.80;99.90
12025;DHT22;6073;53.230;10.444;2023-04-12T06:20:43;11.10;99.90
12025;DHT22;6073;53.230;10.444;2023-04-12T06:23:08;11.10;99.90
12025;DHT22;6073;53.230;10.444;2023-04-12T06:25:34;11.20;99.90
12025;DHT22;6073;53.230;10.444;2023-04-12T06:27:59;11.30;99.90
12025;DHT22;6073;53.230;10.444;2023-04-12T06:30:25;11.40;99.90
12025;DHT22;6073;53.230;10.444;2023-04-12T06:32:51;11.90;99.90
12025;DHT22;6073;53.230;10.444;2023-04-12T06:35:16;12.00;99.90
12025;DHT22;6073;53.230;10.444;2023-04-12T06:37:42;12.20;99.90
12025;DHT22;6073;53.230;10.444;2023-04-12T06:40:07;12.50;99.90
12025;DHT22;6073;53.230;10.444;2023-04-12T06:42:33;12.80;99.90
12025;DHT22;6073;53.230;10.444;2023-04-12T06:44:59;12.70;99.90
12025;DHT22;6073;53.230;10.444;2023-04-12T06:47:24;12.70;99.90
12025;DHT22;6073;53.230;10.444;2023-04-12T06:49:50;12.40;99.90
12025;DHT22;6073;53.230;10.444;2023-04-12T06:52:25;12.50;99.90
12025;DHT22;6073;53.230;10.444;2023-04-12T06:54:52;12.90;99.90
12025;DHT22;6073;53.230;10.444;2023-04-12T06:57:17;13.10;99.90
12025;DHT22;6073;53.230;10.444;2023-04-12T06:59:43;13.30;99.90
12025;DHT22;6073;53.230;10.444;2023-04-12T07:02:09;13.30;99.90
12025;DHT22;6073;53.230;10.444;2023-04-12T07:04:34;13.90;99.90
12025;DHT22;6073;53.230;10.444;2023-04-12T07:07:00;13.60;99.90
12025;DHT22;6073;53.230;10.444;2023-04-12T07:09:26;13.70;99.90
12025;DHT22;6073;53.230;10.444;2023-04-12T07:11:51;14.00;99.90
12025;DHT22;6073;53.230;10.444;2023-04-12T07:14:17;14.10;99.90
12025;DHT22;6073;53.230;10.444;2023-04-12T07:16:43;14.00;99.90
12025;DHT22;6073;53.230;10.444;2023-04-12T07:19:09;14.00;99.90
12025;DHT22;6073;53.230;10.444;2023-04-12T07:21:34;14.10;99.90
12025;DHT22;6073;53.230;10.444;2023-04-12T07:24:00;14.70;99.90
12025;DHT22;6073;53.230;10.444;2023-04-12T07:26:26;14.90;99.90
12025;DHT22;6073;53.230;10.444;2023-04-12T07:28:52;14.90;99.90
12025;DHT22;6073;53.230;10.444;2023-04-12T07:31:17;14.90;99.90
12025;DHT22;6073;53.230;10.444;2023-04-12T07:33:43;14.30;99.90
12025;DHT22;6073;53.230;10.444;2023-04-12T07:36:09;13.30;99.90
12025;DHT22;6073;53.230;10.444;2023-04-12T07:38:36;12.40;99.90
12025;DHT22;6073;53.230;10.444;2023-04-12T07:41:01;11.60;99.90
12025;DHT22;6073;53.230;10.444;2023-04-12T07:43:27;11.10;99.90
12025;DHT22;6073;53.230;10.444;2023-04-12T07:45:55;10.80;99.90
12025;DHT22;6073;53.230;10.444;2023-04-12T07:48:21;10.60;99.90
12025;DHT22;6073;53.230;10.444;2023-04-12T07:50:47;10.50;99.90
12025;DHT22;6073;53.230;10.444;2023-04-12T07:53:24;10.50;99.90
12025;DHT22;6073;53.230;10.444;2023-04-12T07:55:50;10.60;99.90
12025;DHT22;6073;53.230;10.444;2023-04-12T07:58:16;10.60;99.90
12025;DHT22;6073;53.230;10.444;2023-04-12T08:00:43;10.60;99.90
12025;DHT22;6073;53.230;10.444;2023-04-12T08:03:11;10.50;99.90
12025;DHT22;6073;53.230;10.444;2023-04-12T08:05:37;10.50;99.90
12025;DHT22;6073;53.230;10.444;2023-04-12T08:08:03;10.50;99.90
12025;DHT22;6073;53.230;10.444;2023-04-12T08:10:29;10.40;99.90
12025;DHT22;6073;53.230;10.444;2023-04-12T08:12:55;10.40;99.90
12025;DHT22;6073;53.230;10.444;2023-04-12T08:15:21;10.40;99.90
12025;DHT22;6073;53.230;10.444;2023-04-12T08:17:47;10.40;99.90
12025;DHT22;6073;53.230;10.444;2023-04-12T08:20:12;10.40;99.90
12025;DHT22;6073;53.230;10.444;2023-04-12T08:22:40;10.40;99.90
12025;DHT22;6073;53.230;10.444;2023-04-12T08:25:06;10.30;99.90
12025;DHT22;6073;53.230;10.444;2023-04-12T08:27:33;10.20;99.90
12025;DHT22;6073;53.230;10.444;2023-04-12T08:29:58;10.30;99.90
12025;DHT22;6073;53.230;10.444;2023-04-12T08:32:24;10.20;99.90
12025;DHT22;6073;53.230;10.444;2023-04-12T08:34:50;10.20;99.90
12025;DHT22;6073;53.230;10.444;2023-04-12T08:37:15;10.20;99.90
12025;DHT22;6073;53.230;10.444;2023-04-12T08:39:42;10.20;99.90
12025;DHT22;6073;53.230;10.444;2023-04-12T08:42:07;10.10;99.90
12025;DHT22;6073;53.230;10.444;2023-04-12T08:44:38;10.10;99.90
12025;DHT22;6073;53.230;10.444;2023-04-12T08:47:05;10.20;99.90
12025;DHT22;6073;53.230;10.444;2023-04-12T08:49:32;10.10;99.90
12025;DHT22;6073;53.230;10.444;2023-04-12T08:52:09;10.00;99.90
12025;DHT22;6073;53.230;10.444;2023-04-12T08:54:36;10.10;99.90
12025;DHT22;6073;53.230;10.444;2023-04-12T08:57:03;10.20;99.90
12025;DHT22;6073;53.230;10.444;2023-04-12T08:59:30;10.20;99.90
12025;DHT22;6073;53.230;10.444;2023-04-12T09:01:56;10.20;99.90
12025;DHT22;6073;53.230;10.444;2023-04-12T09:04:23;10.40;99.90
12025;DHT22;6073;53.230;10.444;2023-04-12T09:06:49;10.40;99.90
12025;DHT22;6073;53.230;10.444;2023-04-12T09:09:15;10.50;99.90
12025;DHT22;6073;53.230;10.444;2023-04-12T09:11:40;10.50;99.90
12025;DHT22;6073;53.230;10.444;2023-04-12T09:14:23;10.60;99.90
12025;DHT22;6073;53.230;10.444;2023-04-12T09:16:49;10.60;99.90
12025;DHT22;6073;53.230;10.444;2023-04-12T09:19:14;10.60;99.90
12025;DHT22;6073;53.230;10.444;2023-04-12T09:21:54;10.60;99.90
12025;DHT22;6073;53.230;10.444;2023-04-12T09:24:20;10.60;99.90
12025;DHT22;6073;53.230;10.444;2023-04-12T09:27:09;10.70;99.90
12025;DHT22;6073;53.230;10.444;2023-04-12T09:29:35;10.80;99.90
12025;DHT22;6073;53.230;10.444;2023-04-12T09:32:02;10.90;99.90
12025;DHT22;6073;53.230;10.444;2023-04-12T09:34:30;11.20;99.90
12025;DHT22;6073;53.230;10.444;2023-04-12T09:36:56;11.40;99.90
12025;DHT22;6073;53.230;10.444;2023-04-12T09:39:34;11.80;99.90
12025;DHT22;6073;53.230;10.444;2023-04-12T09:42:08;12.20;99.90
12025;DHT22;6073;53.230;10.444;2023-04-12T09:44:34;12.30;99.90
12025;DHT22;6073;53.230;10.444;2023-04-12T09:47:00;12.40;99.90
12025;DHT22;6073;53.230;10.444;2023-04-12T09:49:42;12.60;99.90
12025;DHT22;6073;53.230;10.444;2023-04-12T09:52:12;12.70;99.90
12025;DHT22;6073;53.230;10.444;2023-04-12T09:54:43;12.70;99.90
12025;DHT22;6073;53.230;10.444;2023-04-12T09:57:09;12.70;99.90
12025;DHT22;6073;53.230;10.444;2023-04-12T09:59:37;12.70;99.90
12025;DHT22;6073;53.230;10.444;2023-04-12T10:02:12;12.80;99.90
12025;DHT22;6073;53.230;10.444;2023-04-12T10:04:38;12.80;99.90
12025;DHT22;6073;53.230;10.444;2023-04-12T10:07:05;12.80;99.90
12025;DHT22;6073;53.230;10.444;2023-04-12T10:09:32;12.70;99.90
12025;DHT22;6073;53.230;10.444;2023-04-12T10:11:59;12.60;99.90
12025;DHT22;6073;53.230;10.444;2023-04-12T10:14:27;12.60;99.90
12025;DHT22;6073;53.230;10.444;2023-04-12T10:16:57;12.60;99.90
12025;DHT22;6073;53.230;10.444;2023-04-12T10:19:24;12.50;99.90
12025;DHT22;6073;53.230;10.444;2023-04-12T10:21:50;12.40;99.90
12025;DHT22;6073;53.230;10.444;2023-04-12T10:24:16;12.40;99.90
12025;DHT22;6073;53.230;10.444;2023-04-12T10:26:42;12.40;99.90
12025;DHT22;6073;53.230;10.444;2023-04-12T10:29:28;12.30;99.90
12025;DHT22;6073;53.230;10.444;2023-04-12T10:31:56;12.20;99.90
12025;DHT22;6073;53.230;10.444;2023-04-12T10:34:29;12.20;99.90
12025;DHT22;6073;53.230;10.444;2023-04-12T10:36:59;12.10;99.90
12025;DHT22;6073;53.230;10.444;2023-04-12T10:39:39;12.10;99.90
12025;DHT22;6073;53.230;10.444;2023-04-12T10:44:44;12.10;99.90
12025;DHT22;6073;53.230;10.444;2023-04-12T10:47:10;12.10;99.90
12025;DHT22;6073;53.230;10.444;2023-04-12T10:49:37;12.10;99.90
12025;DHT22;6073;53.230;10.444;2023-04-12T10:54:35;11.90;99.90
12025;DHT22;6073;53.230;10.444;2023-04-12T10:57:02;11.90;99.90
12025;DHT22;6073;53.230;10.444;2023-04-12T10:59:51;11.80;99.90
12025;DHT22;6073;53.230;10.444;2023-04-12T11:02:16;11.80;99.90
12025;DHT22;6073;53.230;10.444;2023-04-12T11:05:18;11.80;99.90
12025;DHT22;6073;53.230;10.444;2023-04-12T11:07:45;11.60;99.90
12025;DHT22;6073;53.230;10.444;2023-04-12T11:10:17;11.40;99.90
12025;DHT22;6073;53.230;10.444;2023-04-12T11:12:50;11.30;99.90
12025;DHT22;6073;53.230;10.444;2023-04-12T11:15:17;11.30;99.90
12025;DHT22;6073;53.230;10.444;2023-04-12T11:17:55;11.20;99.90
12025;DHT22;6073;53.230;10.444;2023-04-12T11:20:21;10.90;99.90
12025;DHT22;6073;53.230;10.444;2023-04-12T11:22:49;10.70;99.90
12025;DHT22;6073;53.230;10.444;2023-04-12T11:25:16;10.50;99.90
12025;DHT22;6073;53.230;10.444;2023-04-12T11:27:51;10.40;99.90
12025;DHT22;6073;53.230;10.444;2023-04-12T11:30:19;10.20;99.90
12025;DHT22;6073;53.230;10.444;2023-04-12T11:32:45;10.10;99.90
12025;DHT22;6073;53.230;10.444;2023-04-12T11:35:13;10.10;99.90
12025;DHT22;6073;53.230;10.444;2023-04-12T11:37:39;10.00;99.90
12025;DHT22;6073;53.230;10.444;2023-04-12T11:40:06;9.90;99.90
12025;DHT22;6073;53.230;10.444;2023-04-12T11:42:31;9.80;99.90
12025;DHT22;6073;53.230;10.444;2023-04-12T11:44:57;9.60;99.90
12025;DHT22;6073;53.230;10.444;2023-04-12T11:47:24;9.60;99.90
12025;DHT22;6073;53.230;10.444;2023-04-12T11:52:17;9.70;99.90
12025;DHT22;6073;53.230;10.444;2023-04-12T11:54:48;9.70;99.90
12025;DHT22;6073;53.230;10.444;2023-04-12T11:57:18;9.80;99.90
12025;DHT22;6073;53.230;10.444;2023-04-12T11:59:45;9.80;99.90
12025;DHT22;6073;53.230;10.444;2023-04-12T12:02:12;9.70;99.90
12025;DHT22;6073;53.230;10.444;2023-04-12T12:04:40;9.70;99.90
12025;DHT22;6073;53.230;10.444;2023-04-12T12:07:06;9.70;99.90
12025;DHT22;6073;53.230;10.444;2023-04-12T12:09:32;9.70;99.90
12025;DHT22;6073;53.230;10.444;2023-04-12T12:11:58;9.70;99.90
12025;DHT22;6073;53.230;10.444;2023-04-12T12:14:25;9.70;99.90
12025;DHT22;6073;53.230;10.444;2023-04-12T12:16:57;9.60;99.90
12025;DHT22;6073;53.230;10.444;2023-04-12T12:19:37;9.60;99.90
12025;DHT22;6073;53.230;10.444;2023-04-12T12:24:50;9.60;99.90
12025;DHT22;6073;53.230;10.444;2023-04-12T12:27:32;9.50;99.90
12025;DHT22;6073;53.230;10.444;2023-04-12T12:29:59;9.70;99.90
12025;DHT22;6073;53.230;10.444;2023-04-12T12:32:33;9.60;99.90
12025;DHT22;6073;53.230;10.444;2023-04-12T12:34:59;9.60;99.90
12025;DHT22;6073;53.230;10.444;2023-04-12T12:37:26;9.50;99.90
12025;DHT22;6073;53.230;10.444;2023-04-12T12:40:09;9.50;99.90
12025;DHT22;6073;53.230;10.444;2023-04-12T12:42:52;9.50;99.90
12025;DHT22;6073;53.230;10.444;2023-04-12T12:45:21;9.60;99.90
12025;DHT22;6073;53.230;10.444;2023-04-12T12:47:52;9.60;99.90
12025;DHT22;6073;53.230;10.444;2023-04-12T12:50:20;9.50;99.90
12025;DHT22;6073;53.230;10.444;2023-04-12T12:52:47;9.50;99.90
12025;DHT22;6073;53.230;10.444;2023-04-12T12:55:14;9.40;99.90
12025;DHT22;6073;53.230;10.444;2023-04-12T12:57:42;9.40;99.90
12025;DHT22;6073;53.230;10.444;2023-04-12T13:00:08;9.40;99.90
12025;DHT22;6073;53.230;10.444;2023-04-12T13:02:35;9.30;99.90
12025;DHT22;6073;53.230;10.444;2023-04-12T13:05:05;9.30;99.90
12025;DHT22;6073;53.230;10.444;2023-04-12T13:07:30;9.30;99.90
12025;DHT22;6073;53.230;10.444;2023-04-12T13:09:56;9.20;99.90
12025;DHT22;6073;53.230;10.444;2023-04-12T13:12:22;9.30;99.90
12025;DHT22;6073;53.230;10.444;2023-04-12T13:14:47;9.30;99.90
12025;DHT22;6073;53.230;10.444;2023-04-12T13:17:14;9.30;99.90
12025;DHT22;6073;53.230;10.444;2023-04-12T13:19:39;9.40;99.90
12025;DHT22;6073;53.230;10.444;2023-04-12T13:22:05;9.40;99.90
12025;DHT22;6073;53.230;10.444;2023-04-12T13:24:33;9.50;99.90
12025;DHT22;6073;53.230;10.444;2023-04-12T13:26:59;9.40;99.90
12025;DHT22;6073;53.230;10.444;2023-04-12T13:29:24;9.50;99.90
12025;DHT22;6073;53.230;10.444;2023-04-12T13:31:50;9.50;99.90
12025;DHT22;6073;53.230;10.444;2023-04-12T13:34:16;9.60;99.90
12025;DHT22;6073;53.230;10.444;2023-04-12T13:36:41;9.60;99.90
12025;DHT22;6073;53.230;10.444;2023-04-12T13:39:07;9.60;99.90
12025;DHT22;6073;53.230;10.444;2023-04-12T13:41:32;9.70;99.90
12025;DHT22;6073;53.230;10.444;2023-04-12T13:43:58;9.80;99.90
12025;DHT22;6073;53.230;10.444;2023-04-12T13:46:24;9.90;99.90
12025;DHT22;6073;53.230;10.444;2023-04-12T13:48:50;10.00;99.90
12025;DHT22;6073;53.230;10.444;2023-04-12T13:51:16;10.00;99.90
12025;DHT22;6073;53.230;10.444;2023-04-12T13:53:45;10.10;99.90
12025;DHT22;6073;53.230;10.444;2023-04-12T13:56:10;10.10;99.90
12025;DHT22;6073;53.230;10.444;2023-04-12T13:58:36;10.10;99.90
12025;DHT22;6073;53.230;10.444;2023-04-12T14:01:05;10.00;99.90
12025;DHT22;6073;53.230;10.444;2023-04-12T14:03:30;10.00;99.90
12025;DHT22;6073;53.230;10.444;2023-04-12T14:05:56;10.00;99.90
12025;DHT22;6073;53.230;10.444;2023-04-12T14:08:21;10.00;99.90
12025;DHT22;6073;53.230;10.444;2023-04-12T14:10:48;10.00;99.90
12025;DHT22;6073;53.230;10.444;2023-04-12T14:13:13;10.00;99.90
12025;DHT22;6073;53.230;10.444;2023-04-12T14:15:39;10.00;99.90
12025;DHT22;6073;53.230;10.444;2023-04-12T14:18:05;9.90;99.90
12025;DHT22;6073;53.230;10.444;2023-04-12T14:20:30;9.80;99.90
12025;DHT22;6073;53.230;10.444;2023-04-12T14:22:56;9.70;99.90
12025;DHT22;6073;53.230;10.444;2023-04-12T14:25:21;9.60;99.90
12025;DHT22;6073;53.230;10.444;2023-04-12T14:27:47;9.60;99.90
12025;DHT22;6073;53.230;10.444;2023-04-12T14:30:12;9.60;99.90
12025;DHT22;6073;53.230;10.444;2023-04-12T14:32:38;9.40;99.90
12025;DHT22;6073;53.230;10.444;2023-04-12T14:35:04;9.40;99.90
12025;DHT22;6073;53.230;10.444;2023-04-12T14:37:30;9.40;99.90
12025;DHT22;6073;53.230;10.444;2023-04-12T14:39:57;9.30;99.90
12025;DHT22;6073;53.230;10.444;2023-04-12T14:42:22;9.30;99.90
12025;DHT22;6073;53.230;10.444;2023-04-12T14:44:48;9.30;99.90
12025;DHT22;6073;53.230;10.444;2023-04-12T14:47:13;9.40;99.90
12025;DHT22;6073;53.230;10.444;2023-04-12T14:49:39;9.40;99.90
12025;DHT22;6073;53.230;10.444;2023-04-12T14:52:05;9.30;99.90
12025;DHT22;6073;53.230;10.444;2023-04-12T14:54:31;9.30;99.90
12025;DHT22;6073;53.230;10.444;2023-04-12T14:56:58;9.30;99.90
12025;DHT22;6073;53.230;10.444;2023-04-12T14:59:23;9.30;99.90
12025;DHT22;6073;53.230;10.444;2023-04-12T15:01:51;9.40;99.90
12025;DHT22;6073;53.230;10.444;2023-04-12T15:04:17;9.40;99.90
12025;DHT22;6073;53.230;10.444;2023-04-12T15:06:43;9.50;99.90
12025;DHT22;6073;53.230;10.444;2023-04-12T15:09:09;9.50;99.90
12025;DHT22;6073;53.230;10.444;2023-04-12T15:11:36;9.60;99.90
12025;DHT22;6073;53.230;10.444;2023-04-12T15:14:02;9.60;99.90
12025;DHT22;6073;53.230;10.444;2023-04-12T15:16:29;9.70;99.90
12025;DHT22;6073;53.230;10.444;2023-04-12T15:18:54;9.70;99.90
12025;DHT22;6073;53.230;10.444;2023-04-12T15:21:20;9.70;99.90
12025;DHT22;6073;53.230;10.444;2023-04-12T15:23:47;9.70;99.90
12025;DHT22;6073;53.230;10.444;2023-04-12T15:26:13;9.70;99.90
12025;DHT22;6073;53.230;10.444;2023-04-12T15:28:39;9.70;99.90
12025;DHT22;6073;53.230;10.444;2023-04-12T15:31:05;9.80;99.90
12025;DHT22;6073;53.230;10.444;2023-04-12T15:33:31;9.80;99.90
12025;DHT22;6073;53.230;10.444;2023-04-12T15:36:00;9.80;99.90
12025;DHT22;6073;53.230;10.444;2023-04-12T15:38:26;9.80;99.90
12025;DHT22;6073;53.230;10.444;2023-04-12T15:40:59;9.80;99.90
12025;DHT22;6073;53.230;10.444;2023-04-12T15:43:26;9.90;99.90
12025;DHT22;6073;53.230;10.444;2023-04-12T15:45:52;9.90;99.90
12025;DHT22;6073;53.230;10.444;2023-04-12T15:48:23;10.00;99.90
12025;DHT22;6073;53.230;10.444;2023-04-12T15:50:49;9.80;99.90
12025;DHT22;6073;53.230;10.444;2023-04-12T15:53:20;9.80;99.90
12025;DHT22;6073;53.230;10.444;2023-04-12T15:55:46;9.80;99.90
12025;DHT22;6073;53.230;10.444;2023-04-12T15:58:12;9.70;99.90